EDT,Max TemperatureF,Mean TemperatureF,Min TemperatureF,Max Dew PointF,MeanDew PointF,Min DewpointF,Max Humidity, Mean Humidity, Min Humidity, Max Sea Level PressureIn, Mean Sea Level PressureIn, Min Sea Level PressureIn, Max VisibilityMiles, Mean VisibilityMiles, Min VisibilityMiles, Max Wind SpeedMPH, Mean Wind SpeedMPH, Max Gust SpeedMPH,PrecipitationIn, CloudCover, Events, WindDirDegrees
2013-7-1,73,69,64,64,62,61,93,83,73,30.01,29.94,29.84,10,6,1,16,7,18,0.91,7,Rain,67
2013-7-2,81,73,64,70,65,62,93,78,62,30.11,30.04,29.97,10,6,0,12,5,16,0.75,6,Fog-Rain-Thunderstorm,138
2013-7-3,84,76,68,69,66,63,93,74,55,30.23,30.17,30.09,10,10,7,18,5,29,T,3,Rain-Thunderstorm,167
2013-7-4,83,76,69,69,67,65,93,74,55,30.26,30.20,30.15,10,9,1,12,4,17,T,5,Rain,206
2013-7-5,83,76,68,70,66,65,90,76,62,30.22,30.16,30.11,10,10,9,15,5,22,T,2,,219
2013-7-6,85,76,67,70,67,65,93,72,51,30.23,30.16,30.06,10,10,6,9,4,16,0.00,3,Thunderstorm,227
2013-7-7,79,74,68,68,66,65,90,76,62,30.14,30.08,30.00,10,8,2,13,6,18,T,6,Rain-Thunderstorm,234
2013-7-8,81,74,66,67,65,63,93,76,58,30.15,30.10,30.05,10,7,2,15,7,18,T,6,Rain,247
2013-7-9,80,74,68,72,68,64,93,84,74,30.12,30.07,29.98,9,5,2,10,5,,T,6,Rain-Thunderstorm,213
2013-7-10,80,72,64,72,65,63,93,84,74,29.99,29.94,29.85,10,4,0,22,8,29,0.84,6,Fog-Rain-Thunderstorm,244
2013-7-11,76,69,62,63,58,52,93,70,46,30.01,29.96,29.89,10,8,1,14,7,18,0.00,5,,322
2013-7-12,75,67,58,61,57,54,84,69,54,30.14,30.08,30.01,10,10,10,15,7,20,0.00,1,,42
2013-7-13,79,70,61,66,62,57,90,77,64,30.27,30.20,30.13,10,10,10,8,5,14,0.00,6,,99
2013-7-14,86,76,66,67,66,63,90,73,55,30.32,30.29,30.27,10,10,7,10,5,16,0.00,0,,149
2013-7-15,88,78,67,72,68,65,93,74,55,30.35,30.30,30.26,10,10,3,13,5,17,0.00,3,Thunderstorm,257
2013-7-16,89,79,69,72,68,66,93,72,50,30.36,30.30,30.24,10,6,0,7,3,,0.00,1,Fog-Thunderstorm,290
2013-7-17,88,78,67,73,69,66,93,77,61,30.33,30.26,30.17,10,3,0,18,3,23,0.33,2,Fog-Rain-Thunderstorm,257
2013-7-18,88,79,70,74,71,66,93,77,61,30.23,30.14,30.04,10,5,0,16,4,21,0.01,2,Fog-Thunderstorm,241
2013-7-19,88,79,70,72,69,66,93,74,55,30.07,29.98,29.86,10,6,2,20,9,28,0.00,2,,233
2013-7-20,83,76,68,70,67,64,90,74,58,29.93,29.88,29.83,10,7,1,24,9,31,0.18,5,Rain-Thunderstorm,245
2013-7-21,85,75,65,67,64,57,93,67,40,30.02,29.97,29.92,10,4,0,6,2,9,0.00,4,Fog,210
2013-7-22,81,73,64,70,67,62,97,80,62,29.97,29.88,29.77,10,3,0,9,4,14,0.35,4,Fog-Rain-Thunderstorm,119
2013-7-23,81,71,61,67,63,59,93,74,54,29.80,29.75,29.70,10,6,1,20,7,29,0.13,5,Rain-Thunderstorm,276
2013-7-24,71,63,54,63,54,48,93,71,49,30.03,29.87,29.74,10,10,7,18,9,23,0.00,6,,330
2013-7-25,76,62,48,52,48,45,86,61,36,30.11,30.06,30.02,10,10,10,15,6,21,0.00,0,,58
2013-7-26,79,65,51,56,52,47,89,66,43,30.11,30.07,30.03,10,10,9,9,4,18,0.00,0,,114
2013-7-27,69,63,56,64,62,54,93,83,73,30.02,29.95,29.86,10,5,0,18,4,25,1.70,6,Fog-Rain-Thunderstorm,132
2013-7-28,74,64,54,64,59,51,93,73,53,30.03,29.92,29.86,10,6,0,17,7,25,0.06,6,Fog-Rain-Thunderstorm,228
2013-7-29,72,62,52,53,50,48,89,68,47,30.20,30.10,30.03,10,10,10,17,7,24,0.00,2,,254
2013-7-30,74,63,51,56,54,48,89,71,53,30.26,30.22,30.17,10,10,5,10,3,15,0.00,3,,262
2013-7-31,76,66,55,62,56,52,93,72,50,30.19,30.12,29.96,10,6,1,8,2,12,0.00,1,,103